sensor_id;sensor_type;location;lat;lon;timestamp;P1;durP1;ratioP1;P2;durP2;ratioP2
53644;SDS011;39547;45.554;12.068;2023-11-22T00:01:16;23.23;;;13.48;;
53644;SDS011;39547;45.554;12.068;2023-11-22T00:07:17;23.85;;;13.65;;
53644;SDS011;39547;45.554;12.068;2023-11-22T00:13:19;23.10;;;13.75;;
53644;SDS011;39547;45.554;12.068;2023-11-22T00:19:21;22.17;;;12.70;;
53644;SDS011;39547;45.554;12.068;2023-11-22T00:25:24;23.33;;;13.45;;
53644;SDS011;39547;45.554;12.068;2023-11-22T00:31:25;24.05;;;13.85;;
53644;SDS011;39547;45.554;12.068;2023-11-22T00:37:27;23.98;;;13.52;;
53644;SDS011;39547;45.554;12.068;2023-11-22T00:43:28;24.02;;;13.68;;
53644;SDS011;39547;45.554;12.068;2023-11-22T00:49:30;22.92;;;13.57;;
53644;SDS011;39547;45.554;12.068;2023-11-22T00:55:32;23.48;;;13.10;;
53644;SDS011;39547;45.554;12.068;2023-11-22T01:01:33;21.80;;;12.73;;
53644;SDS011;39547;45.554;12.068;2023-11-22T01:07:35;23.10;;;12.65;;
53644;SDS011;39547;45.554;12.068;2023-11-22T01:13:36;22.20;;;12.93;;
53644;SDS011;39547;45.554;12.068;2023-11-22T01:19:41;22.13;;;12.45;;
53644;SDS011;39547;45.554;12.068;2023-11-22T01:25:43;23.83;;;13.35;;
53644;SDS011;39547;45.554;12.068;2023-11-22T01:31:44;23.55;;;12.82;;
53644;SDS011;39547;45.554;12.068;2023-11-22T01:37:46;25.08;;;13.18;;
53644;SDS011;39547;45.554;12.068;2023-11-22T01:43:47;21.20;;;12.05;;
53644;SDS011;39547;45.554;12.068;2023-11-22T01:49:49;22.05;;;12.82;;
53644;SDS011;39547;45.554;12.068;2023-11-22T01:55:50;23.40;;;12.75;;
53644;SDS011;39547;45.554;12.068;2023-11-22T02:01:53;25.05;;;14.25;;
53644;SDS011;39547;45.554;12.068;2023-11-22T02:07:55;25.30;;;13.95;;
53644;SDS011;39547;45.554;12.068;2023-11-22T02:13:57;25.70;;;14.27;;
53644;SDS011;39547;45.554;12.068;2023-11-22T02:19:59;25.95;;;14.32;;
53644;SDS011;39547;45.554;12.068;2023-11-22T02:26:00;25.25;;;14.52;;
53644;SDS011;39547;45.554;12.068;2023-11-22T02:32:02;24.63;;;14.30;;
53644;SDS011;39547;45.554;12.068;2023-11-22T02:38:06;24.50;;;14.73;;
53644;SDS011;39547;45.554;12.068;2023-11-22T02:44:07;25.73;;;14.65;;
53644;SDS011;39547;45.554;12.068;2023-11-22T02:50:09;24.58;;;14.68;;
53644;SDS011;39547;45.554;12.068;2023-11-22T02:56:12;22.52;;;13.50;;
53644;SDS011;39547;45.554;12.068;2023-11-22T03:02:13;23.40;;;13.10;;
53644;SDS011;39547;45.554;12.068;2023-11-22T03:08:17;23.13;;;12.93;;
53644;SDS011;39547;45.554;12.068;2023-11-22T03:14:19;22.40;;;13.02;;
53644;SDS011;39547;45.554;12.068;2023-11-22T03:20:20;25.63;;;12.88;;
53644;SDS011;39547;45.554;12.068;2023-11-22T03:26:22;23.55;;;13.27;;
53644;SDS011;39547;45.554;12.068;2023-11-22T03:32:23;21.25;;;11.73;;
53644;SDS011;39547;45.554;12.068;2023-11-22T03:38:25;21.60;;;11.80;;
53644;SDS011;39547;45.554;12.068;2023-11-22T03:44:26;21.20;;;11.77;;
53644;SDS011;39547;45.554;12.068;2023-11-22T03:50:28;20.60;;;11.13;;
53644;SDS011;39547;45.554;12.068;2023-11-22T03:56:29;20.48;;;11.18;;
53644;SDS011;39547;45.554;12.068;2023-11-22T04:02:31;21.60;;;11.45;;
53644;SDS011;39547;45.554;12.068;2023-11-22T04:08:33;20.10;;;11.27;;
53644;SDS011;39547;45.554;12.068;2023-11-22T04:14:35;20.15;;;10.70;;
53644;SDS011;39547;45.554;12.068;2023-11-22T04:20:36;20.15;;;10.73;;
53644;SDS011;39547;45.554;12.068;2023-11-22T04:26:38;21.40;;;10.88;;
53644;SDS011;39547;45.554;12.068;2023-11-22T04:32:40;19.63;;;10.50;;
53644;SDS011;39547;45.554;12.068;2023-11-22T04:38:45;20.60;;;11.40;;
53644;SDS011;39547;45.554;12.068;2023-11-22T04:44:46;23.85;;;13.93;;
53644;SDS011;39547;45.554;12.068;2023-11-22T04:50:48;25.33;;;15.73;;
53644;SDS011;39547;45.554;12.068;2023-11-22T04:56:50;26.45;;;16.25;;
53644;SDS011;39547;45.554;12.068;2023-11-22T05:02:51;26.92;;;16.58;;
53644;SDS011;39547;45.554;12.068;2023-11-22T05:08:52;26.30;;;16.52;;
53644;SDS011;39547;45.554;12.068;2023-11-22T05:14:55;26.90;;;16.75;;
53644;SDS011;39547;45.554;12.068;2023-11-22T05:20:57;28.95;;;16.60;;
53644;SDS011;39547;45.554;12.068;2023-11-22T05:26:58;27.20;;;15.23;;
53644;SDS011;39547;45.554;12.068;2023-11-22T05:33:00;24.60;;;13.68;;
53644;SDS011;39547;45.554;12.068;2023-11-22T05:39:01;22.92;;;13.00;;
53644;SDS011;39547;45.554;12.068;2023-11-22T05:45:04;22.60;;;11.77;;
53644;SDS011;39547;45.554;12.068;2023-11-22T05:51:06;23.83;;;11.55;;
53644;SDS011;39547;45.554;12.068;2023-11-22T05:57:09;20.75;;;11.57;;
53644;SDS011;39547;45.554;12.068;2023-11-22T06:03:11;21.60;;;11.82;;
53644;SDS011;39547;45.554;12.068;2023-11-22T06:09:13;21.27;;;11.70;;
53644;SDS011;39547;45.554;12.068;2023-11-22T06:15:15;22.33;;;12.00;;
53644;SDS011;39547;45.554;12.068;2023-11-22T06:21:16;23.20;;;12.25;;
53644;SDS011;39547;45.554;12.068;2023-11-22T06:27:18;22.52;;;12.73;;
53644;SDS011;39547;45.554;12.068;2023-11-22T06:33:19;24.77;;;13.88;;
53644;SDS011;39547;45.554;12.068;2023-11-22T06:39:24;24.38;;;13.57;;
53644;SDS011;39547;45.554;12.068;2023-11-22T06:45:26;21.33;;;11.85;;
53644;SDS011;39547;45.554;12.068;2023-11-22T06:51:27;23.45;;;12.18;;
53644;SDS011;39547;45.554;12.068;2023-11-22T06:57:29;21.52;;;12.55;;
53644;SDS011;39547;45.554;12.068;2023-11-22T07:03:30;22.38;;;12.13;;
53644;SDS011;39547;45.554;12.068;2023-11-22T07:09:32;23.08;;;12.27;;
53644;SDS011;39547;45.554;12.068;2023-11-22T07:15:33;23.33;;;12.35;;
53644;SDS011;39547;45.554;12.068;2023-11-22T07:21:35;21.65;;;11.48;;
53644;SDS011;39547;45.554;12.068;2023-11-22T07:27:39;22.38;;;11.77;;
53644;SDS011;39547;45.554;12.068;2023-11-22T07:33:40;20.73;;;10.98;;
53644;SDS011;39547;45.554;12.068;2023-11-22T07:39:42;20.50;;;11.00;;
53644;SDS011;39547;45.554;12.068;2023-11-22T07:45:44;20.55;;;10.70;;
53644;SDS011;39547;45.554;12.068;2023-11-22T07:51:46;19.98;;;10.07;;
53644;SDS011;39547;45.554;12.068;2023-11-22T07:57:48;18.98;;;9.48;;
53644;SDS011;39547;45.554;12.068;2023-11-22T08:03:51;20.58;;;10.38;;
53644;SDS011;39547;45.554;12.068;2023-11-22T08:09:53;18.98;;;9.10;;
53644;SDS011;39547;45.554;12.068;2023-11-22T08:15:55;18.85;;;9.43;;
53644;SDS011;39547;45.554;12.068;2023-11-22T08:21:56;18.92;;;9.38;;
53644;SDS011;39547;45.554;12.068;2023-11-22T08:27:58;19.65;;;9.02;;
53644;SDS011;39547;45.554;12.068;2023-11-22T08:34:01;17.95;;;8.27;;
53644;SDS011;39547;45.554;12.068;2023-11-22T08:40:07;17.38;;;7.63;;
53644;SDS011;39547;45.554;12.068;2023-11-22T08:46:12;18.50;;;7.60;;
53644;SDS011;39547;45.554;12.068;2023-11-22T08:52:15;15.82;;;7.05;;
53644;SDS011;39547;45.554;12.068;2023-11-22T08:58:16;16.40;;;7.40;;
53644;SDS011;39547;45.554;12.068;2023-11-22T09:04:18;17.45;;;8.27;;
53644;SDS011;39547;45.554;12.068;2023-11-22T09:10:21;17.05;;;7.40;;
53644;SDS011;39547;45.554;12.068;2023-11-22T09:16:23;16.38;;;6.70;;
53644;SDS011;39547;45.554;12.068;2023-11-22T09:22:25;16.33;;;6.68;;
53644;SDS011;39547;45.554;12.068;2023-11-22T09:28:27;14.68;;;5.80;;
53644;SDS011;39547;45.554;12.068;2023-11-22T09:34:29;14.52;;;5.57;;
53644;SDS011;39547;45.554;12.068;2023-11-22T09:40:30;14.13;;;5.45;;
53644;SDS011;39547;45.554;12.068;2023-11-22T09:46:35;13.00;;;5.03;;
53644;SDS011;39547;45.554;12.068;2023-11-22T09:52:38;11.75;;;4.13;;
53644;SDS011;39547;45.554;12.068;2023-11-22T09:58:42;11.85;;;3.85;;
53644;SDS011;39547;45.554;12.068;2023-11-22T10:04:44;11.20;;;3.40;;
53644;SDS011;39547;45.554;12.068;2023-11-22T10:10:45;10.57;;;2.70;;
53644;SDS011;39547;45.554;12.068;2023-11-22T10:17:02;11.75;;;2.70;;
53644;SDS011;39547;45.554;12.068;2023-11-22T10:23:09;9.70;;;2.67;;
53644;SDS011;39547;45.554;12.068;2023-11-22T10:29:12;10.10;;;2.70;;
53644;SDS011;39547;45.554;12.068;2023-11-22T10:35:14;9.95;;;2.75;;
53644;SDS011;39547;45.554;12.068;2023-11-22T10:41:15;11.15;;;3.20;;
53644;SDS011;39547;45.554;12.068;2023-11-22T10:47:17;10.75;;;3.05;;
53644;SDS011;39547;45.554;12.068;2023-11-22T10:53:28;10.10;;;2.83;;
53644;SDS011;39547;45.554;12.068;2023-11-22T10:59:35;11.95;;;3.10;;
53644;SDS011;39547;45.554;12.068;2023-11-22T11:05:41;10.20;;;2.75;;
53644;SDS011;39547;45.554;12.068;2023-11-22T11:11:51;10.35;;;3.00;;
53644;SDS011;39547;45.554;12.068;2023-11-22T11:17:53;10.63;;;2.90;;
53644;SDS011;39547;45.554;12.068;2023-11-22T11:23:54;10.63;;;2.80;;
53644;SDS011;39547;45.554;12.068;2023-11-22T11:36:46;10.30;;;2.70;;
53644;SDS011;39547;45.554;12.068;2023-11-22T11:42:57;11.70;;;2.70;;
53644;SDS011;39547;45.554;12.068;2023-11-22T11:48:59;12.25;;;3.35;;
53644;SDS011;39547;45.554;12.068;2023-11-22T11:55:10;10.93;;;3.25;;
53644;SDS011;39547;45.554;12.068;2023-11-22T12:01:13;11.68;;;3.20;;
53644;SDS011;39547;45.554;12.068;2023-11-22T12:13:19;10.68;;;3.08;;
53644;SDS011;39547;45.554;12.068;2023-11-22T12:19:22;10.60;;;2.90;;
53644;SDS011;39547;45.554;12.068;2023-11-22T12:25:31;11.15;;;2.80;;
53644;SDS011;39547;45.554;12.068;2023-11-22T12:31:43;11.30;;;2.80;;
53644;SDS011;39547;45.554;12.068;2023-11-22T12:37:53;10.27;;;3.00;;
53644;SDS011;39547;45.554;12.068;2023-11-22T12:44:05;10.57;;;2.72;;
53644;SDS011;39547;45.554;12.068;2023-11-22T12:50:07;9.75;;;2.72;;
53644;SDS011;39547;45.554;12.068;2023-11-22T12:56:28;10.68;;;2.78;;
53644;SDS011;39547;45.554;12.068;2023-11-22T13:02:30;10.02;;;2.90;;
53644;SDS011;39547;45.554;12.068;2023-11-22T13:08:32;9.77;;;2.70;;
53644;SDS011;39547;45.554;12.068;2023-11-22T13:14:34;11.88;;;2.90;;
53644;SDS011;39547;45.554;12.068;2023-11-22T13:20:38;10.60;;;2.72;;
53644;SDS011;39547;45.554;12.068;2023-11-22T13:26:41;10.02;;;2.53;;
53644;SDS011;39547;45.554;12.068;2023-11-22T13:32:43;9.98;;;2.50;;
53644;SDS011;39547;45.554;12.068;2023-11-22T13:38:45;10.95;;;2.30;;
53644;SDS011;39547;45.554;12.068;2023-11-22T13:44:46;7.70;;;2.10;;
53644;SDS011;39547;45.554;12.068;2023-11-22T13:50:48;7.35;;;2.10;;
53644;SDS011;39547;45.554;12.068;2023-11-22T13:56:50;7.72;;;2.00;;
53644;SDS011;39547;45.554;12.068;2023-11-22T14:02:53;9.77;;;2.85;;
53644;SDS011;39547;45.554;12.068;2023-11-22T14:08:56;9.73;;;2.50;;
53644;SDS011;39547;45.554;12.068;2023-11-22T14:14:58;11.35;;;2.80;;
53644;SDS011;39547;45.554;12.068;2023-11-22T14:21:00;8.30;;;2.30;;
53644;SDS011;39547;45.554;12.068;2023-11-22T14:27:04;11.15;;;2.50;;
53644;SDS011;39547;45.554;12.068;2023-11-22T14:33:05;10.13;;;2.63;;
53644;SDS011;39547;45.554;12.068;2023-11-22T14:39:07;9.95;;;2.53;;
53644;SDS011;39547;45.554;12.068;2023-11-22T14:45:12;11.18;;;2.60;;
53644;SDS011;39547;45.554;12.068;2023-11-22T14:51:15;10.57;;;2.50;;
53644;SDS011;39547;45.554;12.068;2023-11-22T14:57:16;11.05;;;2.40;;
53644;SDS011;39547;45.554;12.068;2023-11-22T15:03:18;10.05;;;2.70;;
53644;SDS011;39547;45.554;12.068;2023-11-22T15:09:20;9.60;;;2.60;;
53644;SDS011;39547;45.554;12.068;2023-11-22T15:15:22;10.40;;;3.03;;
53644;SDS011;39547;45.554;12.068;2023-11-22T15:21:26;10.70;;;2.80;;
53644;SDS011;39547;45.554;12.068;2023-11-22T15:27:28;11.27;;;3.20;;
53644;SDS011;39547;45.554;12.068;2023-11-22T15:33:29;12.48;;;3.80;;
53644;SDS011;39547;45.554;12.068;2023-11-22T15:39:31;11.68;;;3.90;;
53644;SDS011;39547;45.554;12.068;2023-11-22T15:45:33;11.38;;;3.60;;
53644;SDS011;39547;45.554;12.068;2023-11-22T15:51:35;12.90;;;4.03;;
53644;SDS011;39547;45.554;12.068;2023-11-22T15:57:37;13.02;;;4.22;;
53644;SDS011;39547;45.554;12.068;2023-11-22T16:03:38;16.35;;;6.40;;
53644;SDS011;39547;45.554;12.068;2023-11-22T16:09:40;19.48;;;7.90;;
53644;SDS011;39547;45.554;12.068;2023-11-22T16:15:44;23.00;;;9.63;;
53644;SDS011;39547;45.554;12.068;2023-11-22T16:21:46;24.92;;;12.45;;
53644;SDS011;39547;45.554;12.068;2023-11-22T16:27:48;22.10;;;11.27;;
53644;SDS011;39547;45.554;12.068;2023-11-22T16:33:50;23.95;;;11.55;;
53644;SDS011;39547;45.554;12.068;2023-11-22T16:39:52;24.42;;;12.30;;
53644;SDS011;39547;45.554;12.068;2023-11-22T16:45:53;23.23;;;10.70;;
53644;SDS011;39547;45.554;12.068;2023-11-22T16:51:55;22.58;;;11.10;;
53644;SDS011;39547;45.554;12.068;2023-11-22T16:58:03;22.38;;;11.45;;
53644;SDS011;39547;45.554;12.068;2023-11-22T17:04:05;21.13;;;10.68;;
53644;SDS011;39547;45.554;12.068;2023-11-22T17:10:07;21.15;;;9.90;;
53644;SDS011;39547;45.554;12.068;2023-11-22T17:16:09;21.00;;;9.63;;
53644;SDS011;39547;45.554;12.068;2023-11-22T17:22:11;20.45;;;9.57;;
53644;SDS011;39547;45.554;12.068;2023-11-22T17:28:12;20.77;;;9.75;;
53644;SDS011;39547;45.554;12.068;2023-11-22T17:34:14;20.48;;;9.60;;
53644;SDS011;39547;45.554;12.068;2023-11-22T17:40:16;20.58;;;9.63;;
53644;SDS011;39547;45.554;12.068;2023-11-22T17:46:17;20.00;;;9.07;;
53644;SDS011;39547;45.554;12.068;2023-11-22T17:52:19;19.02;;;9.40;;
53644;SDS011;39547;45.554;12.068;2023-11-22T17:58:21;19.85;;;9.65;;
53644;SDS011;39547;45.554;12.068;2023-11-22T18:04:23;20.60;;;9.98;;
53644;SDS011;39547;45.554;12.068;2023-11-22T18:10:24;19.25;;;9.52;;
53644;SDS011;39547;45.554;12.068;2023-11-22T18:16:26;17.45;;;9.43;;
53644;SDS011;39547;45.554;12.068;2023-11-22T18:22:28;19.58;;;9.90;;
53644;SDS011;39547;45.554;12.068;2023-11-22T18:28:29;18.83;;;9.48;;
53644;SDS011;39547;45.554;12.068;2023-11-22T18:34:31;21.95;;;10.27;;
53644;SDS011;39547;45.554;12.068;2023-11-22T18:40:33;20.95;;;10.80;;
53644;SDS011;39547;45.554;12.068;2023-11-22T18:46:34;22.60;;;11.98;;
53644;SDS011;39547;45.554;12.068;2023-11-22T18:52:36;22.13;;;12.07;;
53644;SDS011;39547;45.554;12.068;2023-11-22T18:58:37;24.27;;;12.93;;
53644;SDS011;39547;45.554;12.068;2023-11-22T19:04:39;24.58;;;13.00;;
53644;SDS011;39547;45.554;12.068;2023-11-22T19:10:43;22.27;;;12.13;;
53644;SDS011;39547;45.554;12.068;2023-11-22T19:16:44;22.80;;;11.90;;
53644;SDS011;39547;45.554;12.068;2023-11-22T19:22:46;24.50;;;12.80;;
53644;SDS011;39547;45.554;12.068;2023-11-22T19:28:48;22.25;;;12.23;;
53644;SDS011;39547;45.554;12.068;2023-11-22T19:34:49;24.83;;;13.02;;
53644;SDS011;39547;45.554;12.068;2023-11-22T19:40:51;26.23;;;14.13;;
53644;SDS011;39547;45.554;12.068;2023-11-22T19:46:53;25.25;;;14.27;;
53644;SDS011;39547;45.554;12.068;2023-11-22T19:52:54;24.58;;;13.27;;
53644;SDS011;39547;45.554;12.068;2023-11-22T19:58:56;25.40;;;13.75;;
53644;SDS011;39547;45.554;12.068;2023-11-22T20:04:58;23.70;;;13.63;;
53644;SDS011;39547;45.554;12.068;2023-11-22T20:11:00;24.83;;;13.65;;
53644;SDS011;39547;45.554;12.068;2023-11-22T20:17:02;24.67;;;13.32;;
53644;SDS011;39547;45.554;12.068;2023-11-22T20:23:05;24.90;;;13.43;;
53644;SDS011;39547;45.554;12.068;2023-11-22T20:29:07;24.00;;;13.98;;
53644;SDS011;39547;45.554;12.068;2023-11-22T20:35:09;24.35;;;14.15;;
53644;SDS011;39547;45.554;12.068;2023-11-22T20:41:10;23.38;;;12.70;;
53644;SDS011;39547;45.554;12.068;2023-11-22T20:47:12;23.27;;;12.30;;
53644;SDS011;39547;45.554;12.068;2023-11-22T20:53:14;20.70;;;11.55;;
53644;SDS011;39547;45.554;12.068;2023-11-22T20:59:16;21.30;;;11.13;;
53644;SDS011;39547;45.554;12.068;2023-11-22T21:05:18;19.77;;;10.27;;
53644;SDS011;39547;45.554;12.068;2023-11-22T21:11:19;24.13;;;10.27;;
53644;SDS011;39547;45.554;12.068;2023-11-22T21:17:21;18.73;;;9.48;;
53644;SDS011;39547;45.554;12.068;2023-11-22T21:23:25;19.42;;;9.88;;
53644;SDS011;39547;45.554;12.068;2023-11-22T21:29:26;18.10;;;8.82;;
53644;SDS011;39547;45.554;12.068;2023-11-22T21:35:27;17.10;;;7.70;;
53644;SDS011;39547;45.554;12.068;2023-11-22T21:41:30;15.23;;;7.13;;
53644;SDS011;39547;45.554;12.068;2023-11-22T21:47:32;15.73;;;6.95;;
53644;SDS011;39547;45.554;12.068;2023-11-22T21:53:39;14.93;;;6.35;;
53644;SDS011;39547;45.554;12.068;2023-11-22T21:59:41;14.60;;;5.93;;
53644;SDS011;39547;45.554;12.068;2023-11-22T22:05:43;13.98;;;5.70;;
53644;SDS011;39547;45.554;12.068;2023-11-22T22:11:45;13.73;;;5.90;;
53644;SDS011;39547;45.554;12.068;2023-11-22T22:17:47;14.32;;;5.97;;
53644;SDS011;39547;45.554;12.068;2023-11-22T22:23:49;14.65;;;6.35;;
53644;SDS011;39547;45.554;12.068;2023-11-22T22:29:50;14.85;;;6.60;;
53644;SDS011;39547;45.554;12.068;2023-11-22T22:35:52;14.18;;;6.03;;
53644;SDS011;39547;45.554;12.068;2023-11-22T22:41:53;16.20;;;7.20;;
53644;SDS011;39547;45.554;12.068;2023-11-22T22:47:55;15.82;;;7.07;;
53644;SDS011;39547;45.554;12.068;2023-11-22T22:53:56;15.93;;;6.90;;
53644;SDS011;39547;45.554;12.068;2023-11-22T22:59:58;15.27;;;6.70;;
53644;SDS011;39547;45.554;12.068;2023-11-22T23:06:00;15.10;;;6.53;;
53644;SDS011;39547;45.554;12.068;2023-11-22T23:12:01;14.55;;;6.68;;
53644;SDS011;39547;45.554;12.068;2023-11-22T23:18:04;15.23;;;6.65;;
53644;SDS011;39547;45.554;12.068;2023-11-22T23:24:07;15.45;;;7.13;;
53644;SDS011;39547;45.554;12.068;2023-11-22T23:30:10;15.05;;;6.78;;
53644;SDS011;39547;45.554;12.068;2023-11-22T23:36:12;15.45;;;6.70;;
53644;SDS011;39547;45.554;12.068;2023-11-22T23:42:15;14.07;;;6.00;;
53644;SDS011;39547;45.554;12.068;2023-11-22T23:48:17;14.75;;;6.80;;
53644;SDS011;39547;45.554;12.068;2023-11-22T23:54:18;15.88;;;6.93;;
